Time;durP1;ratioP1;P1;durP2;ratioP2;P2;SDS_P1;SDS_P2;PMS_P1;PMS_P2;Temp;Humidity;BMP_temperature;BMP_pressure;BME280_temperature;BME280_humidity;BME280_pressure;Samples;Min_cycle;Max_cycle;Signal;HPM_P1;HPM_P2
2023/04/24 00:00:59;;;;;;;61.28;28.55;;;9.50;99.90;;;8.18;100.00;100049.91;4997247;28;20134;-76
2023/04/24 00:03:25;;;;;;;72.40;30.02;;;9.50;99.90;;;8.13;100.00;100045.84;4996985;28;20143;-77
2023/04/24 00:05:51;;;;;;;61.95;27.40;;;9.50;99.90;;;8.04;100.00;100031.38;4966468;28;20851;-77
2023/04/24 00:08:18;;;;;;;57.25;26.25;;;9.40;99.90;;;7.98;100.00;100035.13;4970756;28;20077;-76
2023/04/24 00:10:44;;;;;;;71.88;28.10;;;9.40;99.90;;;7.97;100.00;100030.81;4966608;28;20061;-76
2023/04/24 00:13:10;;;;;;;62.22;27.52;;;9.40;99.90;;;8.02;100.00;100028.81;4996725;28;20088;-77
2023/04/24 00:15:36;;;;;;;64.07;29.75;;;9.40;99.90;;;8.05;100.00;100024.38;4992356;28;20045;-76
2023/04/24 00:18:05;;;;;;;74.72;31.45;;;9.40;99.90;;;7.99;100.00;100013.25;4978929;28;20041;-77
2023/04/24 00:20:32;;;;;;;63.20;29.65;;;9.30;99.90;;;7.99;100.00;100008.00;4995231;28;20025;-76
2023/04/24 00:22:58;;;;;;;95.32;33.45;;;9.30;99.90;;;7.95;100.00;100006.44;5002899;28;20061;-76
2023/04/24 00:25:24;;;;;;;51.83;25.42;;;9.30;99.90;;;7.93;100.00;100002.22;4967975;28;20041;-76
2023/04/24 00:27:50;;;;;;;61.88;29.13;;;9.20;99.90;;;7.87;100.00;100000.72;4973122;28;20048;-77
2023/04/24 00:30:23;;;;;;;81.80;32.35;;;9.20;99.90;;;7.87;100.00;99987.59;4972168;28;20029;-76
2023/04/24 00:32:49;;;;;;;67.90;31.23;;;9.20;99.90;;;7.92;100.00;99985.59;4973206;28;20037;-77
2023/04/24 00:35:14;;;;;;;84.88;32.70;;;9.20;99.90;;;7.76;100.00;99985.50;4981387;28;20048;-77
2023/04/24 00:37:40;;;;;;;166.02;40.60;;;9.10;99.90;;;7.76;100.00;99975.00;5021723;28;20029;-76
2023/04/24 00:40:07;;;;;;;79.57;30.88;;;9.10;99.90;;;7.70;100.00;99969.22;5002196;28;20128;-76
2023/04/24 00:42:36;;;;;;;154.05;34.97;;;9.00;99.90;;;7.63;100.00;99962.56;4970327;28;20037;-76
2023/04/24 00:45:03;;;;;;;497.20;57.45;;;9.00;99.90;;;7.59;100.00;99960.06;4954536;28;20025;-77
2023/04/24 00:47:29;;;;;;;70.53;31.45;;;8.90;99.90;;;7.53;100.00;99962.13;4997344;28;20526;-76
2023/04/24 00:49:55;;;;;;;766.53;64.15;;;8.80;99.90;;;7.51;100.00;99949.09;4993379;28;20045;-76
2023/04/24 00:52:24;;;;;;;136.60;32.55;;;8.80;99.90;;;7.43;100.00;99943.38;4987531;28;20128;-77
2023/04/24 00:54:52;;;;;;;884.00;52.42;;;8.80;99.90;;;7.42;100.00;99944.28;4999292;28;20037;-76
2023/04/24 00:57:18;;;;;;;342.83;40.92;;;8.80;99.90;;;7.35;100.00;99935.88;5017661;28;20075;-76
2023/04/24 00:59:44;;;;;;;104.50;32.83;;;8.70;99.90;;;7.37;100.00;99934.03;5002904;28;20455;-77
2023/04/24 01:02:11;;;;;;;498.90;48.35;;;8.70;99.90;;;7.41;100.00;99926.88;4991138;28;20037;-76
2023/04/24 01:04:37;;;;;;;72.75;30.10;;;8.70;99.90;;;7.43;100.00;99913.69;4986259;28;20045;-77
2023/04/24 01:07:11;;;;;;;58.15;27.60;;;8.80;99.90;;;7.45;100.00;99906.63;4982144;28;20029;-77
2023/04/24 01:09:48;;;;;;;101.68;30.67;;;8.80;99.90;;;7.49;100.00;99900.31;4984231;28;20045;-76
2023/04/24 01:12:15;;;;;;;54.55;25.90;;;8.80;99.90;;;7.52;100.00;99902.81;4983933;28;20483;-76
2023/04/24 01:14:42;;;;;;;48.50;25.52;;;8.90;99.90;;;7.55;100.00;99900.03;5000386;28;20081;-77
2023/04/24 01:17:09;;;;;;;34.47;20.00;;;8.90;99.90;;;7.61;100.00;99902.38;5013429;28;21210;-76
2023/04/24 01:19:35;;;;;;;49.22;26.83;;;9.00;99.90;;;7.70;100.00;99907.16;5005900;28;20076;-76
2023/04/24 01:22:03;;;;;;;45.92;25.75;;;9.10;99.90;;;7.75;100.00;99910.44;4999613;28;20022;-77
2023/04/24 01:24:29;;;;;;;50.22;27.27;;;9.10;99.90;;;7.80;100.00;99918.06;5019236;28;20042;-77
2023/04/24 01:26:55;;;;;;;49.08;27.15;;;9.10;99.90;;;7.83;100.00;99917.91;4987129;28;20391;-77
2023/04/24 01:29:21;;;;;;;51.65;26.38;;;9.10;99.90;;;7.81;100.00;99925.00;5009451;28;20602;-76
2023/04/24 01:31:47;;;;;;;46.85;26.10;;;9.10;99.90;;;7.78;100.00;99919.91;5009210;28;20034;-77
2023/04/24 01:34:14;;;;;;;54.30;26.98;;;9.10;99.90;;;7.77;100.00;99916.41;4984328;28;20071;-76
2023/04/24 01:36:45;;;;;;;58.78;26.63;;;9.10;99.90;;;7.74;100.00;99913.13;4992299;28;20029;-77
2023/04/24 01:39:11;;;;;;;55.72;25.77;;;9.10;99.90;;;7.72;100.00;99912.34;4962872;28;20117;-77
2023/04/24 01:41:37;;;;;;;54.90;26.50;;;9.10;99.90;;;7.75;100.00;99914.78;4969453;28;20029;-77
2023/04/24 01:44:03;;;;;;;59.30;26.38;;;9.10;99.90;;;7.68;100.00;99911.63;4990324;28;20719;-77
2023/04/24 01:46:31;;;;;;;50.72;24.65;;;9.10;99.90;;;7.70;100.00;99901.06;4988307;28;20022;-76
2023/04/24 01:49:01;;;;;;;58.35;26.45;;;9.10;99.90;;;7.69;100.00;99894.13;4990830;28;21275;-77
2023/04/24 01:51:27;;;;;;;67.95;27.90;;;9.10;99.90;;;7.71;100.00;99879.19;4972284;28;20044;-76
2023/04/24 01:53:53;;;;;;;62.03;27.77;;;9.10;99.90;;;7.71;100.00;99882.66;4989503;28;20518;-77
2023/04/24 01:56:21;;;;;;;54.28;25.90;;;9.00;99.90;;;7.72;100.00;99879.13;4988261;28;20117;-77
2023/04/24 01:58:54;;;;;;;54.85;27.50;;;9.10;99.90;;;7.78;100.00;99867.50;4981596;28;20074;-76
2023/04/24 02:01:21;;;;;;;55.42;27.15;;;9.10;99.90;;;7.81;100.00;99862.94;4982490;28;20092;-77
2023/04/24 02:03:47;;;;;;;45.05;21.08;;;9.10;99.90;;;7.79;100.00;99864.78;4984326;28;20060;-76
2023/04/24 02:06:12;;;;;;;48.97;25.05;;;9.10;99.90;;;7.86;100.00;99867.97;4999630;28;20493;-77
2023/04/24 02:08:38;;;;;;;62.85;30.50;;;9.20;99.90;;;7.94;100.00;99868.41;4994368;28;20047;-77
2023/04/24 02:11:04;;;;;;;64.93;30.77;;;9.20;99.90;;;7.94;100.00;99863.19;4969637;28;20041;-77
2023/04/24 02:13:32;;;;;;;71.78;30.13;;;9.30;99.90;;;7.96;100.00;99860.50;4996655;28;20034;-77
2023/04/24 02:15:59;;;;;;;63.80;31.38;;;9.30;99.90;;;8.01;100.00;99861.97;4972455;28;20061;-77
2023/04/24 02:18:25;;;;;;;63.95;30.63;;;9.30;99.90;;;8.02;100.00;99854.94;4999675;28;20075;-77
2023/04/24 02:20:50;;;;;;;77.38;32.83;;;9.30;99.90;;;8.06;100.00;99850.41;4996402;28;20048;-78
2023/04/24 02:23:16;;;;;;;62.45;32.30;;;9.40;99.90;;;8.07;100.00;99849.47;4993732;28;20048;-77
2023/04/24 02:25:42;;;;;;;70.30;33.30;;;9.40;99.90;;;8.07;100.00;99852.09;4973387;28;20041;-77
2023/04/24 02:28:17;;;;;;;75.97;35.30;;;9.50;99.90;;;8.13;100.00;99844.75;4975201;28;20112;-77
2023/04/24 02:30:43;;;;;;;72.88;36.95;;;9.40;99.90;;;8.17;100.00;99851.56;4985770;28;20573;-77
2023/04/24 02:33:09;;;;;;;55.67;25.45;;;9.50;99.90;;;8.16;100.00;99852.50;4977059;28;20101;-77
2023/04/24 02:35:35;;;;;;;69.28;34.55;;;9.50;99.90;;;8.22;100.00;99846.91;5014854;28;20037;-77
2023/04/24 02:38:08;;;;;;;60.00;29.85;;;9.50;99.90;;;8.17;100.00;99841.06;4978399;28;20041;-77
2023/04/24 02:40:34;;;;;;;82.03;34.63;;;9.60;99.90;;;8.29;100.00;99839.56;4986855;28;20460;-75
2023/04/24 02:43:00;;;;;;;75.30;34.75;;;9.60;99.90;;;8.32;100.00;99835.97;4986084;28;20022;-77
2023/04/24 02:45:26;;;;;;;59.83;28.33;;;9.60;99.90;;;8.27;100.00;99843.22;4967320;28;20493;-77
2023/04/24 02:47:52;;;;;;;73.90;34.30;;;9.60;99.90;;;8.28;100.00;99840.53;4997728;28;20053;-76
2023/04/24 02:50:25;;;;;;;70.88;31.90;;;9.60;99.90;;;8.32;100.00;99843.84;4964919;28;20453;-77
2023/04/24 02:52:51;;;;;;;75.10;32.80;;;9.70;99.90;;;8.31;100.00;99829.00;4964110;28;20037;-77
2023/04/24 02:55:17;;;;;;;71.75;33.88;;;9.70;99.90;;;8.35;100.00;99827.94;4982719;28;22130;-77
2023/04/24 02:57:42;;;;;;;72.78;34.15;;;9.70;99.90;;;8.35;100.00;99818.28;4964429;28;20074;-77
2023/04/24 03:00:09;;;;;;;82.75;35.00;;;9.70;99.90;;;8.42;100.00;99821.47;4939439;28;20573;-77
2023/04/24 03:02:35;;;;;;;70.57;34.20;;;9.70;99.90;;;8.44;100.00;99819.59;4984829;28;20046;-77
2023/04/24 03:05:04;;;;;;;72.10;34.10;;;9.70;99.90;;;8.44;100.00;99818.78;4963636;28;20187;-77
2023/04/24 03:07:30;;;;;;;67.32;32.80;;;9.70;99.90;;;8.44;100.00;99822.22;4997928;28;20045;-77
2023/04/24 03:09:58;;;;;;;57.25;30.10;;;9.70;99.90;;;8.35;100.00;99820.06;4992166;28;20034;-76
2023/04/24 03:12:31;;;;;;;58.30;29.25;;;9.70;99.90;;;8.30;100.00;99811.59;4989545;28;20037;-77
2023/04/24 03:14:57;;;;;;;57.90;28.00;;;9.70;99.90;;;8.31;100.00;99811.50;4944636;28;20037;-76
2023/04/24 03:17:23;;;;;;;59.78;29.95;;;9.70;99.90;;;8.38;100.00;99815.50;4988455;28;20721;-77
2023/04/24 03:19:48;;;;;;;62.25;30.30;;;9.70;99.90;;;8.40;100.00;99815.41;4975788;28;20075;-76
2023/04/24 03:22:14;;;;;;;64.28;31.92;;;9.70;99.90;;;8.37;100.00;99800.69;4972412;28;21363;-77
2023/04/24 03:24:40;;;;;;;64.90;30.27;;;9.70;99.90;;;8.34;100.00;99800.03;4982658;28;20041;-77
2023/04/24 03:27:06;;;;;;;59.95;29.27;;;;;;;8.37;100.00;99803.31;4987826;28;20131;-77
2023/04/24 03:29:34;;;;;;;61.25;31.05;;;9.70;99.90;;;8.36;100.00;99791.13;5001376;28;20041;-77
2023/04/24 03:32:00;;;;;;;57.05;27.52;;;9.60;99.90;;;8.16;100.00;99783.44;4999763;28;20048;-77
2023/04/24 03:34:26;;;;;;;64.38;28.92;;;9.60;99.90;;;8.20;100.00;99782.34;4974672;28;20116;-77
2023/04/24 03:36:52;;;;;;;53.28;26.85;;;9.60;99.90;;;8.17;100.00;99778.13;5001845;28;20119;-77
2023/04/24 03:39:18;;;;;;;52.45;27.70;;;9.60;99.90;;;8.24;100.00;99776.03;5016593;28;20033;-77
2023/04/24 03:41:46;;;;;;;48.72;26.17;;;9.60;99.90;;;8.20;100.00;99770.09;4979012;28;20026;-76
2023/04/24 03:44:12;;;;;;;52.20;26.63;;;9.60;99.90;;;8.27;100.00;99765.41;4965907;28;20056;-78
2023/04/24 03:46:38;;;;;;;45.67;24.73;;;9.60;99.90;;;8.27;100.00;99775.91;5023920;28;20099;-77
2023/04/24 03:49:03;;;;;;;46.88;23.92;;;9.60;99.90;;;8.27;100.00;99775.03;4976709;28;20517;-77
2023/04/24 03:51:31;;;;;;;48.72;25.80;;;9.60;99.90;;;8.33;100.00;99774.69;4979867;28;20042;-77
2023/04/24 03:53:57;;;;;;;39.67;21.05;;;9.60;99.90;;;8.32;100.00;99773.88;4967669;28;20048;-77
2023/04/24 03:56:23;;;;;;;33.05;21.60;;;9.70;99.90;;;8.36;100.00;99777.19;5017527;28;20034;-77
2023/04/24 03:58:58;;;;;;;37.85;21.63;;;9.70;99.90;;;8.38;100.00;99765.69;4985020;28;20060;-77
2023/04/24 04:01:24;;;;;;;35.55;20.98;;;9.70;99.90;;;8.44;100.00;99759.28;4990539;28;20038;-76
2023/04/24 04:03:50;;;;;;;32.42;18.52;;;9.80;99.90;;;8.56;100.00;99766.50;4982885;28;20049;-77
2023/04/24 04:06:23;;;;;;;25.40;14.48;;;9.80;99.90;;;8.58;100.00;99754.16;4988707;28;20049;-76
2023/04/24 04:08:48;;;;;;;29.83;17.45;;;9.90;99.90;;;8.77;100.00;99768.91;5009811;28;20033;-77
2023/04/24 04:11:14;;;;;;;26.92;16.27;;;10.00;99.90;;;8.83;100.00;99776.44;4962671;28;20039;-76
2023/04/24 04:13:40;;;;;;;20.33;14.77;;;10.10;99.90;;;8.89;100.00;99776.09;4981972;28;20095;-77
2023/04/24 04:16:06;;;;;;;20.27;14.48;;;10.20;99.90;;;9.01;100.00;99778.06;4999114;28;20124;-76
2023/04/24 04:18:39;;;;;;;20.80;13.43;;;10.20;99.90;;;9.09;100.00;99779.41;4985268;28;20030;-77
2023/04/24 04:21:05;;;;;;;21.40;13.93;;;10.30;99.90;;;9.24;100.00;99774.16;4998235;28;20595;-76
2023/04/24 04:23:31;;;;;;;20.88;14.18;;;10.40;99.90;;;9.36;100.00;99774.41;4993823;28;20042;-77
2023/04/24 04:25:57;;;;;;;16.70;12.75;;;10.50;99.90;;;9.40;100.00;99771.50;5002015;28;20445;-77
2023/04/24 04:28:24;;;;;;;19.65;13.00;;;10.50;99.90;;;9.42;100.00;99774.03;4969229;28;20041;-77
2023/04/24 04:30:57;;;;;;;14.90;10.98;;;10.60;99.90;;;9.45;100.00;99764.19;4973018;28;20608;-77
2023/04/24 04:33:24;;;;;;;16.23;10.50;;;10.60;99.90;;;9.44;100.00;99774.81;5020714;28;20516;-77
2023/04/24 04:35:51;;;;;;;16.67;11.05;;;10.70;99.90;;;9.52;100.00;99769.09;4969108;28;20390;-77
2023/04/24 04:38:23;;;;;;;14.60;9.88;;;10.70;99.90;;;9.64;100.00;99768.41;4975768;28;20498;-77
2023/04/24 04:40:48;;;;;;;16.95;11.02;;;11.00;99.90;;;10.15;100.00;99778.56;4960962;28;20494;-77
2023/04/24 04:43:15;;;;;;;14.70;10.68;;;11.20;99.90;;;10.19;100.00;99782.69;4987468;28;20037;-77
2023/04/24 04:45:43;;;;;;;17.65;10.38;;;11.20;99.90;;;9.99;100.00;99779.47;4993710;28;20034;-77
2023/04/24 04:48:12;;;;;;;17.15;10.68;;;11.20;99.90;;;9.96;100.00;99789.34;5024132;28;20578;-77
2023/04/24 04:50:38;;;;;;;15.48;10.85;;;11.20;99.90;;;9.96;100.00;99798.06;4992190;28;20100;-77
2023/04/24 04:53:05;;;;;;;18.73;12.18;;;11.10;99.90;;;9.96;100.00;99794.59;4988182;28;20037;-77
2023/04/24 04:55:30;;;;;;;19.60;13.00;;;11.10;99.90;;;9.91;100.00;99789.59;4986675;28;20027;-77
2023/04/24 04:57:57;;;;;;;17.95;11.85;;;11.10;99.90;;;9.81;100.00;99785.81;4990561;28;20421;-76
2023/04/24 05:00:33;;;;;;;18.55;10.55;;;11.00;99.90;;;9.66;100.00;99782.31;4993711;28;20718;-77
2023/04/24 05:02:59;;;;;;;18.92;12.45;;;11.00;99.90;;;9.74;100.00;99784.47;4977732;28;20037;-77
2023/04/24 05:05:25;;;;;;;16.92;12.73;;;11.00;99.90;;;9.76;100.00;99786.09;4974324;28;20033;-77
2023/04/24 05:07:51;;;;;;;18.48;12.57;;;11.00;99.90;;;9.77;100.00;99786.94;4950931;28;20041;-76
2023/04/24 05:10:23;;;;;;;10.95;8.05;;;11.00;99.90;;;9.59;100.00;99784.44;4989303;28;20042;-77
2023/04/24 05:12:49;;;;;;;18.95;11.18;;;11.00;99.90;;;9.72;100.00;99784.59;4969645;28;20060;-77
2023/04/24 05:15:15;;;;;;;16.75;12.07;;;11.00;99.90;;;9.73;100.00;99788.88;4985747;28;20532;-77
2023/04/24 05:17:41;;;;;;;18.65;11.73;;;11.00;99.90;;;9.72;100.00;99783.72;4991822;28;20045;-76
2023/04/24 05:20:07;;;;;;;16.10;11.45;;;11.00;99.90;;;9.67;100.00;99780.50;4988569;28;20033;-77
2023/04/24 05:22:38;;;;;;;21.02;12.20;;;10.90;99.90;;;9.64;100.00;99776.28;4984376;28;20436;-77
2023/04/24 05:25:04;;;;;;;19.50;12.45;;;11.00;99.90;;;9.75;100.00;99780.91;4961947;28;20046;-77
2023/04/24 05:27:30;;;;;;;21.67;13.77;;;11.00;99.90;;;9.83;100.00;99787.41;5008676;28;20635;-78
2023/04/24 05:29:55;;;;;;;18.48;12.70;;;11.00;99.90;;;9.65;100.00;99773.56;4969821;28;20054;-77
2023/04/24 05:32:21;;;;;;;15.45;10.88;;;10.90;99.90;;;9.49;100.00;99764.88;4990352;28;20095;-78
2023/04/24 05:34:50;;;;;;;19.77;13.27;;;10.90;99.90;;;9.62;100.00;99765.00;4971718;28;20033;-77
2023/04/24 05:37:18;;;;;;;21.42;14.07;;;11.00;99.90;;;9.75;100.00;99773.88;4954572;28;20521;-77
2023/04/24 05:39:44;;;;;;;18.67;13.50;;;10.90;99.90;;;9.71;100.00;99772.34;4970411;28;20761;-77
2023/04/24 05:42:10;;;;;;;19.65;13.88;;;11.00;99.90;;;9.82;100.00;99775.19;4990187;28;20056;-78
2023/04/24 05:44:36;;;;;;;22.95;12.95;;;11.00;99.90;;;9.78;100.00;99770.22;4996802;28;20045;-78
2023/04/24 05:47:01;;;;;;;20.10;14.15;;;11.10;99.90;;;9.83;100.00;99762.91;4944751;28;20037;-78
2023/04/24 05:49:27;;;;;;;20.80;15.48;;;11.10;99.90;;;9.98;100.00;99758.53;5024083;28;20040;-77
2023/04/24 05:51:57;;;;;;;20.85;14.88;;;11.10;99.90;;;10.04;100.00;99764.28;5005639;28;20070;-76
2023/04/24 05:54:23;;;;;;;22.25;15.05;;;11.20;99.90;;;10.12;100.00;99771.69;4976843;28;20457;-77
2023/04/24 05:56:50;;;;;;;21.20;15.95;;;11.30;99.90;;;10.17;100.00;99774.03;4978560;28;20029;-77
2023/04/24 05:59:16;;;;;;;22.55;15.40;;;11.30;99.90;;;10.17;100.00;99784.56;5019118;28;20041;-77
2023/04/24 06:01:42;;;;;;;27.23;16.33;;;11.30;99.90;;;10.22;100.00;99785.16;4989318;28;20078;-78
2023/04/24 06:04:11;;;;;;;24.88;15.85;;;11.30;99.90;;;10.15;100.00;99784.69;4964622;28;20041;-77
2023/04/24 06:06:38;;;;;;;22.50;16.08;;;11.30;99.90;;;10.17;100.00;99790.69;4988993;28;20036;-78
2023/04/24 06:09:04;;;;;;;23.48;15.98;;;11.40;99.90;;;10.22;100.00;99787.78;4993305;28;20117;-77
2023/04/24 06:11:30;;;;;;;27.23;16.85;;;11.40;99.90;;;10.31;100.00;99789.88;4997049;28;20037;-77
2023/04/24 06:13:56;;;;;;;29.35;17.67;;;11.50;99.90;;;10.37;100.00;99788.69;4982660;28;20037;-77
2023/04/24 06:16:22;;;;;;;25.48;16.70;;;11.50;99.90;;;10.38;100.00;99788.56;4985215;28;20101;-77
2023/04/24 06:18:53;;;;;;;25.45;17.60;;;11.50;99.90;;;10.46;100.00;99788.97;4981665;28;20096;-77
2023/04/24 06:21:18;;;;;;;25.20;16.95;;;11.50;99.90;;;10.47;100.00;99792.44;4936026;28;20026;-77
2023/04/24 06:23:46;;;;;;;26.30;17.35;;;11.60;99.90;;;10.43;100.00;99780.38;4983360;28;20044;-77
2023/04/24 06:26:12;;;;;;;23.48;16.23;;;11.90;99.90;;;10.44;100.00;99787.38;5009194;28;20037;-77
2023/04/24 06:28:37;;;;;;;28.70;17.45;;;11.60;99.90;;;10.52;100.00;99784.25;4991828;28;20032;-77
2023/04/24 06:31:11;;;;;;;27.83;19.00;;;11.70;99.90;;;10.66;100.00;99781.63;4960955;28;20129;-77
2023/04/24 06:33:36;;;;;;;27.15;17.98;;;11.70;99.90;;;10.81;100.00;99780.66;4993008;28;20068;-77
2023/04/24 06:36:03;;;;;;;30.23;18.83;;;11.80;99.90;;;10.96;100.00;99778.00;4995006;28;20180;-77
2023/04/24 06:38:29;;;;;;;26.30;17.52;;;11.90;99.90;;;11.03;100.00;99781.94;4995931;28;20048;-77
2023/04/24 06:40:55;;;;;;;28.90;18.35;;;12.00;99.90;;;11.06;100.00;99779.13;4981980;28;20061;-78
2023/04/24 06:43:30;;;;;;;26.17;18.35;;;12.00;99.90;;;11.07;100.00;99772.91;4961068;28;20034;-77
2023/04/24 06:46:03;;;;;;;27.33;18.65;;;12.10;99.90;;;11.09;100.00;99774.50;4997727;28;20045;-76
2023/04/24 06:48:31;;;;;;;29.67;19.35;;;12.10;99.90;;;11.13;100.00;99779.59;4983812;28;20500;-77
2023/04/24 06:50:57;;;;;;;26.95;19.13;;;12.30;99.90;;;11.33;100.00;99781.75;4967410;28;20076;-77
2023/04/24 06:53:23;;;;;;;28.67;18.88;;;12.30;99.90;;;11.63;100.00;99784.19;4996898;28;20111;-77
2023/04/24 06:55:49;;;;;;;27.40;18.95;;;12.50;99.90;;;12.00;100.00;99783.56;4979611;28;20159;-77
2023/04/24 06:58:15;;;;;;;24.27;17.80;;;12.80;99.90;;;12.44;100.00;99774.38;4991109;28;20121;-77
2023/04/24 07:00:43;;;;;;;25.45;18.40;;;13.10;99.90;;;12.86;100.00;99780.25;4946239;28;20045;-77
2023/04/24 07:03:09;;;;;;;26.33;17.20;;;13.50;99.90;;;13.26;100.00;99785.31;4961906;28;20033;-77
2023/04/24 07:05:37;;;;;;;24.10;17.50;;;13.90;99.90;;;13.96;99.67;99789.84;4991655;28;20133;-77
2023/04/24 07:08:03;;;;;;;22.73;16.00;;;14.30;99.90;;;14.26;96.19;99793.78;4985147;28;20068;-77
2023/04/24 07:10:30;;;;;;;23.40;15.82;;;14.80;99.90;;;15.39;92.04;99798.06;5006996;28;21062;-76
2023/04/24 07:13:00;;;;;;;19.45;14.85;;;15.90;99.90;;;17.88;84.00;99802.34;4996043;28;20039;-77
2023/04/24 07:15:27;;;;;;;16.38;13.52;;;17.60;99.90;;;20.53;74.92;99806.09;4994670;28;20075;-77
2023/04/24 07:17:53;;;;;;;16.75;13.23;;;19.60;99.90;;;22.80;66.11;99807.63;4992780;28;20046;-76
2023/04/24 07:20:19;;;;;;;15.98;12.90;;;21.30;99.90;;;22.65;63.37;99797.59;4978460;28;20076;-77
2023/04/24 07:22:45;;;;;;;19.73;12.98;;;22.00;99.90;;;22.68;62.13;99799.94;5004871;28;20036;-77
2023/04/24 07:25:10;;;;;;;13.93;11.25;;;22.70;99.90;;;24.04;59.25;99809.47;4965114;28;20800;-77
2023/04/24 07:27:39;;;;;;;13.10;11.00;;;23.00;99.90;;;23.13;60.05;99808.34;4983441;28;20041;-77
2023/04/24 07:30:06;;;;;;;12.98;10.25;;;22.80;99.90;;;22.26;61.31;99800.19;4965584;28;20151;-76
2023/04/24 07:32:32;;;;;;;12.18;10.43;;;22.60;99.90;;;22.34;61.39;99799.38;5012198;28;20406;-77
2023/04/24 07:34:58;;;;;;;15.55;9.68;;;22.30;99.90;;;21.48;62.46;99785.44;5009164;28;20101;-77
2023/04/24 07:37:24;;;;;;;10.82;9.65;;;21.80;99.90;;;20.65;64.05;99783.47;5010069;28;20132;-76
2023/04/24 07:39:50;;;;;;;11.55;10.07;;;21.40;99.90;;;20.76;63.68;99785.00;5017658;28;20083;-77
2023/04/24 07:42:16;;;;;;;12.02;9.20;;;21.10;99.90;;;20.52;64.30;99789.22;4964871;28;20102;-77
2023/04/24 07:44:46;;;;;;;14.05;8.93;;;20.90;99.90;;;19.96;65.50;99782.47;5017326;28;20030;-77
2023/04/24 07:47:12;;;;;;;13.52;9.45;;;20.50;99.90;;;19.43;66.44;99784.13;4967880;28;20041;-77
2023/04/24 07:49:38;;;;;;;9.98;8.15;;;20.10;99.90;;;19.09;67.32;99782.09;4995564;28;20038;-76
2023/04/24 07:52:04;;;;;;;13.25;8.88;;;19.60;99.90;;;18.91;67.99;99775.88;5019472;28;20101;-76
2023/04/24 07:54:30;;;;;;;10.48;8.80;;;19.40;99.90;;;18.79;68.80;99781.44;4985224;28;20049;-77
2023/04/24 07:56:56;;;;;;;11.23;9.38;;;19.30;99.90;;;19.02;69.13;99789.03;4979581;28;20033;-76
2023/04/24 07:59:24;;;;;;;14.07;8.80;;;19.40;99.90;;;19.25;69.04;99784.13;4985091;28;20414;-78
2023/04/24 08:01:50;;;;;;;9.93;7.28;;;19.70;99.90;;;19.88;67.53;99786.75;4981751;28;20030;-77
2023/04/24 08:04:16;;;;;;;12.57;7.63;;;20.00;99.90;;;19.95;66.45;99792.31;4984526;28;20034;-76
2023/04/24 08:06:41;;;;;;;9.00;6.63;;;20.20;99.90;;;20.25;65.31;99800.88;4986456;28;20047;-76
2023/04/24 08:09:07;;;;;;;10.43;4.90;;;20.40;99.90;;;20.61;64.20;99804.31;4975588;28;20051;-76
2023/04/24 08:11:33;;;;;;;;;;;20.50;99.90;;;20.89;61.86;99802.28;5021941;28;20033;-77
2023/04/24 08:13:59;;;;;;;4.95;2.95;;;20.90;99.90;;;20.67;62.50;99806.38;5015560;28;20058;-77
2023/04/24 08:16:25;;;;;;;12.07;2.55;;;20.90;99.90;;;20.50;61.45;99812.59;5014660;28;20042;-77
2023/04/24 08:18:53;;;;;;;4.35;2.70;;;20.90;99.90;;;20.54;60.98;99819.31;5000150;28;20042;-77
2023/04/24 08:21:20;;;;;;;4.90;2.75;;;20.80;99.90;;;20.14;62.37;99817.19;5014623;28;20025;-77
2023/04/24 08:23:46;;;;;;;11.80;4.95;;;20.50;99.90;;;19.28;62.34;99813.16;5018330;28;20022;-76
2023/04/24 08:26:13;;;;;;;4.95;2.67;;;19.90;99.90;;;18.72;62.99;99809.63;5000215;28;20037;-75
2023/04/24 08:28:39;;;;;;;4.55;3.20;;;19.40;99.90;;;18.31;63.84;99802.88;4978146;28;20026;-77
2023/04/24 08:31:10;;;;;;;6.93;2.97;;;19.10;99.90;;;18.40;65.03;99804.66;4981509;28;20045;-77
2023/04/24 08:33:36;;;;;;;6.07;2.80;;;18.90;99.90;;;18.44;64.46;99806.06;4995466;28;20119;-77
2023/04/24 08:36:03;;;;;;;7.78;2.75;;;18.80;99.90;;;18.44;64.19;99804.25;4993378;28;20042;-77
2023/04/24 08:38:30;;;;;;;5.80;2.80;;;18.90;99.90;;;18.95;64.25;99811.94;5001519;28;20092;-77
2023/04/24 08:41:01;;;;;;;4.65;2.75;;;19.30;99.90;;;19.58;63.23;99819.16;4970859;28;20040;-76
2023/04/24 08:43:28;;;;;;;3.22;2.67;;;19.80;99.90;;;20.03;62.10;99826.28;5005472;28;20057;-76
2023/04/24 08:45:56;;;;;;;6.18;2.60;;;20.20;99.90;;;20.31;60.89;99828.84;4998423;28;20030;-77
2023/04/24 08:48:23;;;;;;;3.45;2.50;;;20.40;99.90;;;20.32;59.45;99844.69;4956181;28;20062;-77
2023/04/24 08:50:54;;;;;;;4.90;2.53;;;20.50;99.90;;;20.39;59.67;99847.59;5008315;28;20116;-76
2023/04/24 08:53:19;;;;;;;3.72;2.58;;;20.60;99.90;;;20.34;58.80;99849.91;4991572;28;20405;-77
2023/04/24 08:55:48;;;;;;;3.75;2.22;;;20.60;99.90;;;20.49;58.41;99843.81;4994589;28;20036;-76
2023/04/24 08:58:23;;;;;;;4.95;2.28;;;20.70;99.90;;;20.49;58.45;99835.78;4993421;28;20102;-76
2023/04/24 09:00:50;;;;;;;2.37;1.83;;;20.70;99.90;;;20.46;58.51;99827.25;4988097;28;20057;-77
2023/04/24 09:03:17;;;;;;;4.57;2.10;;;20.80;99.90;;;20.44;58.94;99832.75;4967428;28;20288;-76
2023/04/24 09:05:49;;;;;;;2.50;2.00;;;20.90;99.90;;;20.52;59.52;99837.34;4996305;28;20033;-76
2023/04/24 09:08:19;;;;;;;4.88;1.88;;;21.00;99.90;;;20.66;58.40;99842.13;5014805;28;20107;-77
2023/04/24 09:10:45;;;;;;;3.03;2.00;;;21.10;99.90;;;20.46;57.80;99840.63;4993539;28;20155;-76
2023/04/24 09:13:18;;;;;;;2.17;1.92;;;21.10;99.90;;;20.59;58.23;99840.25;4966394;28;20037;-76
2023/04/24 09:15:47;;;;;;;2.30;2.10;;;21.10;99.90;;;20.53;57.70;99840.84;4996622;28;20030;-78
2023/04/24 09:18:13;;;;;;;3.28;2.13;;;21.10;99.90;;;20.62;58.53;99835.41;5002209;28;20108;-76
2023/04/24 09:21:06;;;;;;;2.13;1.83;;;21.00;99.90;;;19.95;57.08;99827.03;4984125;28;20512;-77
2023/04/24 09:23:35;;;;;;;2.45;1.88;;;20.80;99.90;;;19.81;57.78;99832.94;4986868;28;20104;-77
2023/04/24 09:26:05;;;;;;;2.67;2.13;;;20.60;99.90;;;19.49;58.53;99830.75;5005412;28;20037;-77
2023/04/24 09:28:45;;;;;;;4.82;2.50;;;20.30;99.90;;;19.23;58.89;99828.81;4979730;28;20095;-77
2023/04/24 09:31:24;;;;;;;3.45;2.20;;;20.20;99.90;;;19.42;60.13;99828.69;4997106;28;20083;-78
2023/04/24 09:34:10;;;;;;;3.58;2.15;;;20.20;99.90;;;19.65;59.33;99838.91;5000124;28;20039;-77
2023/04/24 09:36:45;;;;;;;3.30;2.00;;;20.30;99.90;;;19.70;59.00;99842.03;5020624;28;20041;-77
2023/04/24 09:39:17;;;;;;;3.10;2.00;;;20.30;99.90;;;19.43;59.23;99841.03;4996104;28;20498;-77
2023/04/24 09:41:53;;;;;;;3.35;2.15;;;20.20;99.90;;;19.42;59.61;99843.88;5000288;28;20041;-76
2023/04/24 09:44:22;;;;;;;1.90;1.50;;;20.10;99.90;;;19.61;59.42;99848.22;5000449;28;22551;-77
2023/04/24 09:47:01;;;;;;;2.35;1.77;;;20.20;99.90;;;19.88;58.94;99856.19;5008609;28;20033;-77
2023/04/24 09:49:33;;;;;;;5.68;1.10;;;20.30;99.90;;;20.05;57.37;99857.19;5026230;28;20119;-77
2023/04/24 09:52:15;;;;;;;1.48;1.05;;;20.50;99.90;;;20.65;54.84;99853.00;4973861;28;20480;-77
2023/04/24 09:54:41;;;;;;;3.10;1.23;;;20.70;99.90;;;20.75;54.65;99852.88;4996436;28;20033;-76
2023/04/24 09:57:09;;;;;;;2.63;1.10;;;20.90;99.90;;;20.95;54.12;99848.97;4994503;28;20048;-77
2023/04/24 09:59:42;;;;;;;3.63;1.17;;;21.10;99.90;;;21.09;54.05;99856.38;4998788;28;20672;-78
2023/04/24 10:02:21;;;;;;;2.97;1.20;;;21.10;99.90;;;20.55;53.20;99861.06;4983726;28;20056;-77
2023/04/24 10:05:01;;;;;;;2.80;1.20;;;20.90;99.90;;;20.15;53.77;99854.44;5005387;28;20169;-76
2023/04/24 10:07:27;;;;;;;3.85;1.08;;;20.70;99.90;;;19.94;54.46;99846.75;4972517;28;20050;-76
2023/04/24 10:09:54;;;;;;;1.27;0.93;;;20.50;99.90;;;20.07;54.90;99847.19;4984617;28;20099;-77
2023/04/24 10:12:24;;;;;;;1.95;0.80;;;20.60;99.90;;;20.49;54.37;99859.03;5007436;28;20044;-77